Time;durP1;ratioP1;P1;durP2;ratioP2;P2;SDS_P1;SDS_P2;PMS_P1;PMS_P2;Temp;Humidity;BMP_temperature;BMP_pressure;BME280_temperature;BME280_humidity;BME280_pressure;Samples;Min_cycle;Max_cycle;Signal;HPM_P1;HPM_P2
2023/09/08 00:01:16;;;;;;;8.48;5.53;;;23.10;66.50;;;;;;5023428;28;20048;-69
2023/09/08 00:03:41;;;;;;;10.57;6.97;;;23.00;66.50;;;;;;5020250;28;21671;-69
2023/09/08 00:06:07;;;;;;;9.70;6.70;;;23.00;66.60;;;;;;5017748;28;20026;-69
2023/09/08 00:08:33;;;;;;;11.98;6.70;;;23.00;66.60;;;;;;5027739;28;20481;-69
2023/09/08 00:10:58;;;;;;;10.30;6.20;;;22.90;66.60;;;;;;5023116;28;20025;-69
2023/09/08 00:13:24;;;;;;;10.23;6.25;;;22.90;66.70;;;;;;5040256;28;20021;-69
2023/09/08 00:15:50;;;;;;;9.60;6.50;;;22.90;66.70;;;;;;5022909;28;20025;-69
2023/09/08 00:18:16;;;;;;;10.77;6.28;;;22.90;66.80;;;;;;5020165;28;20029;-68
2023/09/08 00:20:44;;;;;;;11.73;7.00;;;22.80;66.90;;;;;;5018166;28;20050;-68
2023/09/08 00:23:10;;;;;;;10.18;6.93;;;22.80;67.00;;;;;;5030158;28;20691;-69
2023/09/08 00:25:36;;;;;;;9.48;6.88;;;22.80;67.00;;;;;;5022428;28;20030;-68
2023/09/08 00:28:03;;;;;;;10.05;6.55;;;22.70;67.10;;;;;;5026498;28;20022;-69
2023/09/08 00:30:29;;;;;;;9.48;6.60;;;22.70;67.10;;;;;;5024213;28;20564;-68
2023/09/08 00:32:54;;;;;;;10.77;6.85;;;22.70;67.10;;;;;;5026748;28;20684;-68
2023/09/08 00:35:21;;;;;;;10.23;6.32;;;22.70;67.20;;;;;;5050923;28;20031;-68
2023/09/08 00:37:46;;;;;;;10.50;7.55;;;22.60;67.30;;;;;;5055376;28;20036;-68
2023/09/08 00:40:12;;;;;;;10.00;7.00;;;22.60;67.30;;;;;;5035442;28;20367;-68
2023/09/08 00:42:38;;;;;;;12.45;7.03;;;22.50;67.50;;;;;;5022024;28;20373;-68
2023/09/08 00:45:04;;;;;;;11.65;7.22;;;22.50;67.50;;;;;;5028041;28;20025;-68
2023/09/08 00:47:30;;;;;;;10.82;7.80;;;22.50;67.50;;;;;;5027224;28;20072;-68
2023/09/08 00:49:56;;;;;;;10.75;6.85;;;22.50;67.60;;;;;;5060800;28;20037;-68
2023/09/08 00:52:22;;;;;;;10.13;7.25;;;22.40;67.60;;;;;;5010798;28;20037;-68
2023/09/08 00:54:48;;;;;;;10.65;7.53;;;22.40;67.70;;;;;;5027000;28;20105;-68
2023/09/08 00:57:14;;;;;;;9.57;6.53;;;22.40;67.70;;;;;;5023101;28;20120;-68
2023/09/08 00:59:40;;;;;;;11.00;7.65;;;22.40;67.80;;;;;;5013844;28;20053;-68
2023/09/08 01:02:05;;;;;;;9.50;6.57;;;22.30;67.70;;;;;;5023865;28;20060;-69
2023/09/08 01:04:33;;;;;;;9.48;6.50;;;22.30;67.80;;;;;;5027766;28;20034;-68
2023/09/08 01:06:59;;;;;;;10.13;7.18;;;22.30;68.00;;;;;;5023352;28;20030;-68
2023/09/08 01:09:26;;;;;;;11.73;7.05;;;22.30;68.10;;;;;;5022481;28;20029;-68
2023/09/08 01:11:52;;;;;;;11.25;7.18;;;22.30;68.20;;;;;;5055407;28;20022;-68
2023/09/08 01:14:19;;;;;;;10.48;6.75;;;22.20;68.10;;;;;;5024988;28;20366;-69
2023/09/08 01:16:45;;;;;;;9.82;6.88;;;22.20;68.20;;;;;;5032647;28;20029;-68
2023/09/08 01:19:14;;;;;;;9.68;7.03;;;22.20;68.20;;;;;;5025916;28;20026;-68
2023/09/08 01:22:16;;;;;;;10.30;6.72;;;22.10;68.30;;;;;;5023065;28;20045;-68
2023/09/08 01:25:04;;;;;;;10.23;7.50;;;22.10;68.30;;;;;;5037717;28;20037;-68
2023/09/08 01:27:33;;;;;;;10.15;6.80;;;22.10;68.40;;;;;;5027100;28;20362;-68
2023/09/08 01:30:01;;;;;;;11.90;7.28;;;22.10;68.40;;;;;;5025720;28;20131;-68
2023/09/08 01:32:29;;;;;;;9.57;6.90;;;22.00;68.40;;;;;;5024949;28;20030;-68
2023/09/08 01:34:57;;;;;;;10.80;7.57;;;22.00;68.50;;;;;;5026118;28;20104;-68
2023/09/08 01:37:23;;;;;;;11.15;7.38;;;22.00;68.50;;;;;;5025011;28;20026;-68
2023/09/08 01:39:49;;;;;;;11.95;7.55;;;21.90;68.50;;;;;;5033398;28;20042;-68
2023/09/08 01:42:15;;;;;;;10.82;7.32;;;21.90;68.50;;;;;;5024279;28;20040;-68
2023/09/08 01:44:41;;;;;;;10.88;7.30;;;21.90;68.70;;;;;;5024938;28;20136;-68
2023/09/08 01:47:07;;;;;;;11.65;6.78;;;21.90;68.70;;;;;;5029173;28;20057;-68
2023/09/08 01:49:32;;;;;;;11.85;7.70;;;21.90;68.80;;;;;;5021403;28;20113;-68
2023/09/08 01:51:58;;;;;;;10.55;7.30;;;21.90;68.80;;;;;;5030469;28;21605;-68
2023/09/08 01:54:24;;;;;;;11.05;7.40;;;21.80;68.80;;;;;;5052207;28;20021;-68
2023/09/08 01:56:51;;;;;;;10.52;7.57;;;21.80;68.70;;;;;;5021623;28;20025;-68
2023/09/08 01:59:17;;;;;;;10.18;7.13;;;21.80;68.80;;;;;;5030835;28;20429;-68
2023/09/08 02:01:43;;;;;;;12.10;7.32;;;21.80;68.90;;;;;;5014789;28;20057;-68
2023/09/08 02:04:09;;;;;;;10.98;7.20;;;21.70;68.90;;;;;;5028646;28;20025;-68
2023/09/08 02:06:35;;;;;;;12.55;7.47;;;21.70;68.90;;;;;;5033165;28;20458;-68
2023/09/08 02:09:00;;;;;;;13.15;8.00;;;21.70;69.00;;;;;;5025818;28;20509;-68
2023/09/08 02:11:26;;;;;;;10.55;7.70;;;21.60;69.00;;;;;;5015261;28;20029;-68
2023/09/08 02:13:52;;;;;;;10.57;7.47;;;21.60;69.10;;;;;;5024860;28;20018;-68
2023/09/08 02:16:19;;;;;;;11.15;7.43;;;21.60;69.10;;;;;;5022167;28;20521;-68
2023/09/08 02:18:45;;;;;;;11.50;7.65;;;21.60;69.20;;;;;;5030383;28;20030;-68
2023/09/08 02:21:11;;;;;;;10.95;7.90;;;21.60;69.20;;;;;;5028445;28;20033;-68
2023/09/08 02:23:37;;;;;;;11.23;7.45;;;21.60;69.20;;;;;;5023203;28;20105;-68
2023/09/08 02:26:04;;;;;;;11.93;7.65;;;21.60;69.20;;;;;;5023592;28;20108;-68
2023/09/08 02:28:29;;;;;;;10.50;7.38;;;21.50;69.20;;;;;;5026357;28;20068;-68
2023/09/08 02:30:56;;;;;;;9.77;7.63;;;21.50;69.20;;;;;;5019036;28;20034;-68
2023/09/08 02:33:22;;;;;;;10.38;7.72;;;21.50;69.30;;;;;;5031237;28;20036;-68
2023/09/08 02:35:49;;;;;;;11.18;7.35;;;21.50;69.40;;;;;;5033214;28;20029;-68
2023/09/08 02:38:16;;;;;;;11.52;7.97;;;21.40;69.40;;;;;;5058670;28;20091;-68
2023/09/08 02:40:43;;;;;;;13.27;8.65;;;21.40;69.40;;;;;;5024199;28;20442;-68
2023/09/08 02:43:10;;;;;;;11.88;8.30;;;21.40;69.40;;;;;;5026896;28;20018;-68
2023/09/08 02:45:36;;;;;;;11.25;7.78;;;21.40;69.50;;;;;;5032483;28;20079;-68
2023/09/08 02:48:02;;;;;;;11.23;8.38;;;21.40;69.50;;;;;;5009923;28;20466;-68
2023/09/08 02:50:29;;;;;;;11.43;8.02;;;21.40;69.50;;;;;;5027299;28;20029;-68
2023/09/08 02:52:55;;;;;;;14.32;7.40;;;21.30;69.60;;;;;;5053666;28;20022;-68
2023/09/08 02:55:21;;;;;;;12.45;8.40;;;21.30;69.60;;;;;;5020442;28;20045;-68
2023/09/08 02:57:46;;;;;;;11.18;7.68;;;21.30;70.30;;;;;;5021801;28;20026;-68
2023/09/08 03:00:12;;;;;;;11.55;7.78;;;21.30;69.70;;;;;;5056327;28;20037;-68
2023/09/08 03:02:38;;;;;;;11.35;7.53;;;21.20;69.70;;;;;;5020228;28;20434;-68
2023/09/08 03:05:04;;;;;;;11.02;8.02;;;21.20;69.80;;;;;;5027841;28;20128;-68
2023/09/08 03:07:33;;;;;;;10.35;7.72;;;21.20;69.80;;;;;;5023541;28;20057;-68
2023/09/08 03:09:59;;;;;;;11.80;8.25;;;21.20;69.90;;;;;;5021805;28;20021;-68
2023/09/08 03:12:25;;;;;;;11.52;7.72;;;21.20;69.90;;;;;;5030663;28;20028;-68
2023/09/08 03:14:51;;;;;;;12.32;8.38;;;21.10;69.90;;;;;;5009726;28;20438;-68
2023/09/08 03:17:17;;;;;;;10.65;8.18;;;21.20;70.00;;;;;;5017895;28;20482;-68
2023/09/08 03:19:45;;;;;;;14.20;8.15;;;21.10;70.00;;;;;;5053417;28;20472;-68
2023/09/08 03:22:11;;;;;;;11.32;8.07;;;21.10;70.00;;;;;;5034212;28;20026;-68
2023/09/08 03:24:37;;;;;;;10.10;8.13;;;21.10;70.00;;;;;;5017261;28;20209;-68
2023/09/08 03:27:03;;;;;;;11.43;7.72;;;21.10;70.00;;;;;;5022202;28;20133;-68
2023/09/08 03:29:28;;;;;;;11.10;7.72;;;21.10;70.00;;;;;;5021241;28;20028;-68
2023/09/08 03:31:54;;;;;;;10.07;7.47;;;21.10;70.00;;;;;;5021163;28;20026;-68
2023/09/08 03:34:20;;;;;;;11.98;8.98;;;21.10;70.10;;;;;;5012221;28;20025;-68
2023/09/08 03:36:50;;;;;;;11.43;7.60;;;21.10;70.10;;;;;;5015234;28;20672;-68
2023/09/08 03:39:16;;;;;;;11.25;8.70;;;21.00;70.20;;;;;;5023336;28;20029;-68
2023/09/08 03:41:42;;;;;;;13.35;8.88;;;21.00;70.20;;;;;;5051816;28;20112;-68
2023/09/08 03:44:08;;;;;;;12.05;8.15;;;21.00;70.30;;;;;;5022397;28;20116;-68
2023/09/08 03:46:34;;;;;;;11.05;7.97;;;21.00;70.30;;;;;;5020606;28;20022;-68
2023/09/08 03:49:00;;;;;;;14.85;8.48;;;20.90;70.40;;;;;;5023226;28;20029;-68
2023/09/08 03:51:29;;;;;;;13.02;8.05;;;20.90;70.40;;;;;;5008178;28;20056;-68
2023/09/08 03:53:55;;;;;;;11.93;8.32;;;20.90;70.50;;;;;;5053731;28;20471;-68
2023/09/08 03:56:21;;;;;;;11.55;8.48;;;20.90;70.60;;;;;;5050120;28;20064;-68
2023/09/08 03:58:48;;;;;;;11.32;8.00;;;20.90;70.60;;;;;;5022476;28;20087;-68
2023/09/08 04:01:13;;;;;;;11.80;8.50;;;20.90;70.60;;;;;;5030611;28;20464;-68
2023/09/08 04:03:39;;;;;;;11.88;8.93;;;20.90;70.60;;;;;;5017438;28;20054;-68
2023/09/08 04:06:05;;;;;;;13.30;8.45;;;20.90;70.70;;;;;;5025897;28;20129;-68
2023/09/08 04:08:32;;;;;;;13.20;8.32;;;20.80;70.60;;;;;;5017852;28;20105;-68
2023/09/08 04:10:58;;;;;;;11.45;7.60;;;20.80;70.70;;;;;;5023971;28;20515;-68
2023/09/08 04:13:24;;;;;;;11.32;8.23;;;20.80;70.70;;;;;;5019776;28;20378;-68
2023/09/08 04:15:50;;;;;;;11.73;8.35;;;20.80;70.80;;;;;;5024076;28;20026;-68
2023/09/08 04:18:15;;;;;;;10.77;8.10;;;20.80;70.80;;;;;;5006448;28;20032;-68
2023/09/08 04:20:41;;;;;;;11.77;8.18;;;20.80;70.90;;;;;;5058419;28;20022;-68
2023/09/08 04:23:07;;;;;;;12.82;8.63;;;20.70;70.80;;;;;;5023201;28;20443;-68
2023/09/08 04:25:33;;;;;;;12.85;8.63;;;20.70;70.80;;;;;;5055002;28;20022;-68
2023/09/08 04:27:59;;;;;;;15.52;8.98;;;20.70;70.80;;;;;;5029302;28;20071;-68
2023/09/08 04:30:24;;;;;;;10.82;8.68;;;20.70;70.90;;;;;;5025149;28;20030;-68
2023/09/08 04:32:50;;;;;;;11.63;8.88;;;20.70;71.00;;;;;;5029466;28;20030;-68
2023/09/08 04:35:16;;;;;;;11.48;8.13;;;20.70;71.00;;;;;;5037045;28;20450;-68
2023/09/08 04:37:42;;;;;;;12.60;8.60;;;20.70;71.00;;;;;;5039711;28;20014;-68
2023/09/08 04:40:08;;;;;;;13.32;8.80;;;20.70;71.00;;;;;;5032539;28;20025;-68
2023/09/08 04:42:35;;;;;;;12.85;9.23;;;20.70;71.00;;;;;;5029364;28;20025;-68
2023/09/08 04:45:01;;;;;;;12.50;8.65;;;20.70;71.10;;;;;;5031025;28;20168;-69
2023/09/08 04:47:28;;;;;;;11.57;8.82;;;20.60;71.00;;;;;;5029147;28;20054;-69
2023/09/08 04:49:53;;;;;;;13.27;9.90;;;20.70;71.10;;;;;;5029335;28;20029;-69
2023/09/08 04:52:19;;;;;;;11.30;8.05;;;20.60;71.00;;;;;;5024293;28;20029;-69
2023/09/08 04:54:45;;;;;;;13.02;9.38;;;20.60;71.10;;;;;;5058104;28;20029;-69
2023/09/08 04:57:11;;;;;;;15.57;9.23;;;20.70;71.20;;;;;;5040177;28;20124;-69
2023/09/08 04:59:39;;;;;;;16.17;9.70;;;20.60;71.10;;;;;;5031868;28;20108;-69
2023/09/08 05:02:05;;;;;;;13.15;9.90;;;20.60;71.00;;;;;;5014153;28;20350;-69
2023/09/08 05:04:31;;;;;;;12.52;9.68;;;20.60;71.10;;;;;;5028447;28;20030;-68
2023/09/08 05:06:57;;;;;;;13.95;10.20;;;20.60;71.10;;;;;;5033845;28;20033;-68
2023/09/08 05:09:22;;;;;;;12.65;9.70;;;20.60;71.10;;;;;;5035134;28;20132;-70
2023/09/08 05:11:48;;;;;;;13.45;9.55;;;20.60;71.10;;;;;;5036366;28;20029;-70
2023/09/08 05:14:14;;;;;;;13.65;9.43;;;20.60;71.10;;;;;;5035579;28;20124;-70
2023/09/08 05:16:45;;;;;;;15.18;9.35;;;20.60;71.20;;;;;;5069688;28;20021;-70
2023/09/08 05:19:13;;;;;;;13.73;10.02;;;20.60;71.30;;;;;;5036311;28;20034;-70
2023/09/08 05:21:40;;;;;;;12.85;9.40;;;20.60;71.20;;;;;;5018958;28;20022;-69
2023/09/08 05:24:06;;;;;;;13.77;9.88;;;20.60;71.30;;;;;;5027966;28;20104;-69
2023/09/08 05:26:32;;;;;;;13.95;9.38;;;20.60;71.40;;;;;;5034921;28;20040;-70
2023/09/08 05:28:58;;;;;;;12.45;9.68;;;20.60;71.40;;;;;;5036233;28;20021;-69
2023/09/08 05:31:24;;;;;;;14.55;10.20;;;20.60;71.40;;;;;;5032966;28;20029;-69
2023/09/08 05:33:49;;;;;;;12.50;9.68;;;20.60;71.30;;;;;;5017295;28;20350;-69
2023/09/08 05:36:15;;;;;;;15.40;9.10;;;20.60;71.30;;;;;;5015206;28;20359;-69
2023/09/08 05:38:41;;;;;;;14.60;10.10;;;20.70;71.40;;;;;;5031854;28;20469;-69
2023/09/08 05:41:07;;;;;;;15.73;9.70;;;20.70;71.30;;;;;;5029537;28;20030;-69
2023/09/08 05:43:33;;;;;;;14.93;9.18;;;20.70;71.30;;;;;;5037617;28;20108;-69
2023/09/08 05:45:58;;;;;;;13.07;9.55;;;20.70;71.20;;;;;;5043401;28;20033;-69
2023/09/08 05:48:24;;;;;;;13.82;10.30;;;20.80;71.20;;;;;;5029238;28;20041;-69
2023/09/08 05:50:50;;;;;;;13.48;9.30;;;20.80;71.20;;;;;;5020466;28;20022;-70
2023/09/08 05:53:16;;;;;;;14.70;10.20;;;20.80;71.30;;;;;;5004581;28;20108;-69
2023/09/08 05:55:44;;;;;;;15.23;10.00;;;20.90;71.20;;;;;;5019051;28;20517;-70
2023/09/08 05:58:10;;;;;;;12.50;9.15;;;20.90;71.20;;;;;;5013525;28;20104;-69
2023/09/08 06:00:36;;;;;;;13.48;9.75;;;21.00;71.10;;;;;;5032154;28;20029;-69
2023/09/08 06:03:02;;;;;;;14.50;9.70;;;21.00;71.00;;;;;;5029693;28;20489;-69
2023/09/08 06:05:28;;;;;;;13.25;9.57;;;21.00;71.10;;;;;;5016610;28;20033;-72
2023/09/08 06:07:54;;;;;;;12.52;9.60;;;21.10;71.10;;;;;;5026542;28;20022;-72
2023/09/08 06:10:20;;;;;;;12.32;9.88;;;21.10;71.10;;;;;;5007261;28;20124;-68
2023/09/08 06:12:46;;;;;;;12.88;9.95;;;21.10;70.90;;;;;;5025489;28;20025;-70
2023/09/08 06:15:14;;;;;;;13.85;10.13;;;21.20;70.80;;;;;;5024170;28;20116;-70
2023/09/08 06:17:40;;;;;;;13.02;9.85;;;21.20;70.70;;;;;;5026053;28;20025;-71
2023/09/08 06:20:07;;;;;;;12.93;9.73;;;21.30;70.70;;;;;;5020481;28;20091;-69
2023/09/08 06:22:32;;;;;;;12.88;10.43;;;21.40;70.70;;;;;;5026298;28;20336;-70
2023/09/08 06:24:58;;;;;;;14.90;10.73;;;21.50;70.50;;;;;;5003930;28;20095;-69
2023/09/08 06:27:24;;;;;;;14.23;10.23;;;21.60;70.20;;;;;;5014233;28;20034;-69
2023/09/08 06:29:51;;;;;;;16.52;10.38;;;22.00;69.50;;;;;;5023870;28;20066;-70
2023/09/08 06:32:17;;;;;;;15.63;10.80;;;22.60;68.00;;;;;;5028612;28;20095;-70
2023/09/08 06:34:45;;;;;;;14.23;9.77;;;23.40;66.40;;;;;;5023928;28;20025;-70
2023/09/08 06:37:11;;;;;;;12.20;8.85;;;24.00;64.90;;;;;;5020487;28;21831;-70
2023/09/08 06:39:37;;;;;;;14.45;10.27;;;24.50;63.70;;;;;;5026415;28;20088;-70
2023/09/08 06:42:04;;;;;;;12.73;9.77;;;24.80;62.60;;;;;;5006993;28;20120;-70
2023/09/08 06:44:30;;;;;;;15.15;10.23;;;24.70;62.40;;;;;;5028524;28;20454;-70
2023/09/08 06:46:57;;;;;;;11.85;9.45;;;24.60;62.40;;;;;;5022302;28;20029;-70
2023/09/08 06:49:24;;;;;;;13.23;9.63;;;24.30;62.80;;;;;;5024357;28;20029;-70
2023/09/08 06:51:50;;;;;;;13.95;9.60;;;24.20;63.20;;;;;;5022366;28;20083;-70
2023/09/08 06:54:16;;;;;;;16.20;10.55;;;24.00;63.60;;;;;;5027699;28;20029;-70
2023/09/08 06:56:43;;;;;;;14.80;10.88;;;23.90;63.80;;;;;;5019323;28;20021;-70
2023/09/08 06:59:09;;;;;;;14.65;9.95;;;23.80;63.80;;;;;;5027756;28;20087;-69
2023/09/08 07:01:35;;;;;;;17.27;11.35;;;23.70;64.00;;;;;;5024097;28;20025;-70
2023/09/08 07:04:01;;;;;;;13.55;10.43;;;23.60;64.00;;;;;;5023052;28;20441;-69
2023/09/08 07:06:28;;;;;;;17.30;11.40;;;23.60;64.00;;;;;;5024503;28;20075;-69
2023/09/08 07:08:55;;;;;;;19.33;10.80;;;23.60;64.10;;;;;;5027199;28;20036;-71
2023/09/08 07:11:21;;;;;;;14.60;10.27;;;23.60;64.10;;;;;;5039118;28;20029;-70
2023/09/08 07:13:48;;;;;;;14.38;10.68;;;23.60;64.00;;;;;;5007914;28;20037;-69
2023/09/08 07:16:14;;;;;;;14.48;11.18;;;23.70;64.00;;;;;;5025794;28;20018;-69
2023/09/08 07:18:39;;;;;;;14.73;10.52;;;23.70;63.90;;;;;;5004702;28;20030;-70
2023/09/08 07:21:07;;;;;;;16.63;10.35;;;23.80;63.90;;;;;;5025462;28;20037;-71
2023/09/08 07:23:36;;;;;;;14.90;10.15;;;23.90;63.80;;;;;;5025764;28;20029;-71
2023/09/08 07:26:02;;;;;;;13.07;9.90;;;23.90;63.60;;;;;;5028943;28;20434;-71
2023/09/08 07:28:30;;;;;;;13.10;9.68;;;24.00;63.30;;;;;;5027282;28;20025;-70
2023/09/08 07:31:04;;;;;;;14.40;9.77;;;24.10;63.20;;;;;;5022213;28;20079;-70
2023/09/08 07:33:32;;;;;;;13.80;10.32;;;24.20;63.20;;;;;;5022533;28;20435;-70
2023/09/08 07:36:06;;;;;;;12.85;9.52;;;24.20;63.00;;;;;;5009342;28;20025;-69
2023/09/08 07:38:33;;;;;;;17.23;10.30;;;24.30;62.80;;;;;;5056170;28;20064;-69
2023/09/08 07:41:01;;;;;;;12.18;9.13;;;24.40;62.60;;;;;;5034051;28;20473;-69
2023/09/08 07:43:28;;;;;;;13.07;9.45;;;24.50;62.40;;;;;;5032655;28;20057;-69
2023/09/08 07:45:54;;;;;;;14.95;9.68;;;24.70;62.30;;;;;;5017592;28;20032;-69
2023/09/08 07:48:19;;;;;;;13.63;9.38;;;24.90;61.80;;;;;;5025413;28;20025;-70
2023/09/08 07:50:45;;;;;;;13.23;9.20;;;25.00;61.20;;;;;;5029485;28;20104;-70
2023/09/08 07:53:11;;;;;;;12.68;9.10;;;25.20;61.00;;;;;;5032842;28;20461;-70
2023/09/08 07:55:37;;;;;;;11.52;8.43;;;25.40;60.70;;;;;;5061677;28;20027;-70
2023/09/08 07:58:03;;;;;;;14.50;8.75;;;25.60;60.60;;;;;;5033384;28;20104;-70
2023/09/08 08:00:30;;;;;;;12.38;8.25;;;25.80;60.20;;;;;;5033714;28;20049;-70
2023/09/08 08:02:57;;;;;;;15.52;9.98;;;25.90;59.80;;;;;;5034269;28;20038;-70
2023/09/08 08:05:23;;;;;;;12.38;9.15;;;26.10;59.80;;;;;;5028241;28;20044;-70
2023/09/08 08:07:49;;;;;;;13.55;9.80;;;26.30;58.70;;;;;;5034626;28;20034;-70
2023/09/08 08:10:15;;;;;;;11.07;8.50;;;26.40;58.60;;;;;;5033581;28;20474;-70
2023/09/08 08:12:42;;;;;;;12.05;9.18;;;26.50;58.50;;;;;;5034149;28;20029;-70
2023/09/08 08:15:12;;;;;;;14.80;8.40;;;26.70;58.20;;;;;;5032699;28;20431;-70
2023/09/08 08:17:39;;;;;;;11.27;8.53;;;26.90;57.70;;;;;;5033608;28;20032;-70
2023/09/08 08:20:08;;;;;;;11.77;8.77;;;27.10;57.40;;;;;;5033237;28;20290;-70
2023/09/08 08:22:34;;;;;;;13.40;8.43;;;27.20;57.00;;;;;;5034630;28;20092;-70
2023/09/08 08:25:00;;;;;;;12.05;8.40;;;27.30;56.70;;;;;;5033084;28;20026;-70
2023/09/08 08:27:25;;;;;;;11.23;8.57;;;27.40;56.40;;;;;;5033776;28;20112;-70
2023/09/08 08:29:51;;;;;;;11.55;7.90;;;27.50;56.20;;;;;;5049628;28;20033;-70
2023/09/08 08:32:17;;;;;;;11.52;8.85;;;27.60;56.30;;;;;;5030216;28;20022;-70
2023/09/08 08:34:44;;;;;;;11.55;8.38;;;27.80;56.40;;;;;;5023704;28;20512;-69
2023/09/08 08:37:11;;;;;;;12.70;9.10;;;27.90;56.00;;;;;;5050504;28;20396;-70
2023/09/08 08:39:37;;;;;;;11.45;8.30;;;28.00;55.80;;;;;;5022937;28;20481;-68
2023/09/08 08:42:12;;;;;;;10.60;8.23;;;28.10;55.80;;;;;;5020513;28;20030;-70
2023/09/08 08:44:39;;;;;;;10.38;7.45;;;28.20;55.50;;;;;;5014336;28;20034;-70
2023/09/08 08:47:07;;;;;;;11.10;7.30;;;28.30;55.40;;;;;;5023844;28;20037;-70
2023/09/08 08:49:34;;;;;;;10.93;8.05;;;28.40;55.10;;;;;;5019712;28;20040;-70
2023/09/08 08:52:07;;;;;;;11.38;7.50;;;28.60;54.90;;;;;;5030511;28;20033;-70
2023/09/08 08:54:39;;;;;;;11.45;7.35;;;28.70;54.80;;;;;;5037192;28;20516;-70
2023/09/08 08:57:06;;;;;;;11.50;7.88;;;28.80;54.70;;;;;;5030160;28;20060;-70
2023/09/08 08:59:32;;;;;;;15.10;7.60;;;28.90;54.70;;;;;;5038180;28;20033;-70
2023/09/08 09:01:59;;;;;;;10.40;7.75;;;29.00;54.50;;;;;;5028095;28;20044;-70
2023/09/08 09:04:26;;;;;;;10.30;7.32;;;29.10;54.50;;;;;;5035303;28;20049;-70
2023/09/08 09:06:53;;;;;;;9.98;7.50;;;29.20;54.50;;;;;;5029978;28;20105;-70
2023/09/08 09:09:20;;;;;;;11.73;7.85;;;29.30;54.40;;;;;;5036451;28;20032;-70
2023/09/08 09:11:46;;;;;;;11.43;8.32;;;29.40;54.30;;;;;;5019906;28;20021;-70
2023/09/08 09:14:12;;;;;;;11.45;8.18;;;29.40;54.00;;;;;;5039367;28;20470;-70
2023/09/08 09:16:42;;;;;;;11.48;7.57;;;29.50;53.80;;;;;;5033193;28;20509;-70
2023/09/08 09:19:08;;;;;;;11.10;6.63;;;29.60;53.70;;;;;;5028282;28;20025;-70
2023/09/08 09:21:55;;;;;;;10.85;7.65;;;29.60;53.80;;;;;;5035495;28;20276;-70
2023/09/08 09:24:43;;;;;;;13.40;7.50;;;29.70;53.70;;;;;;5028747;28;20029;-71
2023/09/08 09:27:10;;;;;;;11.02;7.43;;;29.80;53.70;;;;;;5033999;28;20391;-71
2023/09/08 09:29:47;;;;;;;11.63;8.55;;;29.90;53.60;;;;;;5035784;28;20037;-70
2023/09/08 09:32:14;;;;;;;11.20;7.85;;;29.90;52.90;;;;;;5069679;28;20079;-70
2023/09/08 09:34:54;;;;;;;11.35;7.75;;;29.90;53.20;;;;;;5037332;28;20029;-70
2023/09/08 09:37:20;;;;;;;12.50;8.63;;;29.90;53.30;;;;;;5021515;28;20061;-71
2023/09/08 09:39:55;;;;;;;11.10;8.27;;;29.90;53.30;;;;;;5030906;28;20090;-70
2023/09/08 09:42:24;;;;;;;11.23;7.85;;;30.00;53.20;;;;;;5035890;28;20175;-71
2023/09/08 09:44:53;;;;;;;10.63;7.65;;;30.00;53.20;;;;;;5024705;28;20133;-71
2023/09/08 09:47:20;;;;;;;11.57;8.52;;;30.10;53.00;;;;;;5033995;28;20480;-70
2023/09/08 09:49:47;;;;;;;13.82;7.82;;;30.10;52.70;;;;;;5036759;28;20025;-70
2023/09/08 09:52:20;;;;;;;11.07;7.53;;;30.10;52.60;;;;;;5035777;28;20424;-70
2023/09/08 09:54:47;;;;;;;11.68;8.02;;;30.10;52.50;;;;;;5048890;28;20030;-70
2023/09/08 09:57:14;;;;;;;13.27;9.40;;;30.20;52.50;;;;;;5064973;28;20164;-70
2023/09/08 09:59:43;;;;;;;10.32;7.80;;;30.20;52.20;;;;;;5035826;28;20036;-70
2023/09/08 10:02:13;;;;;;;12.45;7.65;;;30.30;52.10;;;;;;5035303;28;20025;-69
2023/09/08 10:04:43;;;;;;;12.43;7.47;;;30.30;52.10;;;;;;5027227;28;20045;-70
2023/09/08 10:07:09;;;;;;;10.75;7.25;;;30.30;52.60;;;;;;5028426;28;20034;-70
2023/09/08 10:09:38;;;;;;;13.00;6.72;;;30.50;52.90;;;;;;5032644;28;20030;-70
2023/09/08 10:12:05;;;;;;;10.52;7.50;;;30.50;53.10;;;;;;5036109;28;20033;-70
2023/09/08 10:14:35;;;;;;;12.20;7.88;;;30.60;52.90;;;;;;5022707;28;20069;-70
2023/09/08 10:17:02;;;;;;;9.77;6.15;;;30.60;52.80;;;;;;5051793;28;20033;-71
2023/09/08 10:19:28;;;;;;;9.65;6.35;;;30.70;52.80;;;;;;5036198;28;20055;-71
2023/09/08 10:22:00;;;;;;;11.13;6.47;;;30.80;52.80;;;;;;5032640;28;20120;-71
2023/09/08 10:24:29;;;;;;;11.70;6.90;;;30.90;52.60;;;;;;5035400;28;20048;-71
2023/09/08 10:27:03;;;;;;;12.82;7.45;;;31.00;52.60;;;;;;5018593;28;20040;-70
2023/09/08 10:29:30;;;;;;;9.20;5.90;;;31.10;52.50;;;;;;5034659;28;20386;-70
2023/09/08 10:31:56;;;;;;;12.40;7.20;;;31.10;52.30;;;;;;5039497;28;20032;-70
2023/09/08 10:34:25;;;;;;;10.23;5.95;;;31.20;52.30;;;;;;5035990;28;20029;-70
2023/09/08 10:36:51;;;;;;;10.15;6.28;;;31.20;52.30;;;;;;5037018;28;20021;-71
2023/09/08 10:39:38;;;;;;;10.35;6.50;;;31.20;52.50;;;;;;5019519;28;20054;-71
2023/09/08 10:42:34;;;;;;;10.23;6.63;;;31.30;52.40;;;;;;5034358;28;20124;-71
2023/09/08 10:45:04;;;;;;;10.80;6.63;;;31.40;52.20;;;;;;5027412;28;20045;-70
2023/09/08 10:47:45;;;;;;;8.63;5.57;;;31.30;52.20;;;;;;5026305;28;20036;-71
2023/09/08 10:50:26;;;;;;;9.70;6.22;;;31.40;52.50;;;;;;5033275;28;20049;-71
2023/09/08 10:53:12;;;;;;;9.45;6.15;;;31.40;52.40;;;;;;5029008;28;20017;-71
2023/09/08 10:55:42;;;;;;;12.15;6.10;;;31.40;52.10;;;;;;5025093;28;20029;-70
2023/09/08 10:58:11;;;;;;;10.05;6.53;;;31.30;52.40;;;;;;5023272;28;20090;-70
2023/09/08 11:00:45;;;;;;;10.23;6.40;;;31.40;52.60;;;;;;5054962;28;20044;-69
2023/09/08 11:03:11;;;;;;;14.23;6.75;;;31.40;52.50;;;;;;5028231;28;20040;-72
2023/09/08 11:05:37;;;;;;;9.65;6.32;;;31.50;52.40;;;;;;5029198;28;20033;-73
2023/09/08 11:08:03;;;;;;;13.50;6.18;;;31.50;52.10;;;;;;5032717;28;20058;-72
2023/09/08 11:10:30;;;;;;;10.20;5.82;;;31.60;52.00;;;;;;5057636;28;20187;-71
2023/09/08 11:12:56;;;;;;;14.23;6.22;;;31.50;52.00;;;;;;5021719;28;20029;-71
2023/09/08 11:15:22;;;;;;;23.02;7.20;;;31.50;52.00;;;;;;5023463;28;20044;-72
2023/09/08 11:17:50;;;;;;;16.58;7.13;;;31.60;52.00;;;;;;5029033;28;20028;-72
2023/09/08 11:20:25;;;;;;;13.57;6.57;;;31.60;52.20;;;;;;5021788;28;20052;-72
2023/09/08 11:22:51;;;;;;;7.72;5.10;;;31.60;52.10;;;;;;5025612;28;20036;-72
2023/09/08 11:25:17;;;;;;;7.47;4.90;;;31.70;51.80;;;;;;5026389;28;20045;-71
2023/09/08 11:27:44;;;;;;;9.52;4.90;;;31.70;51.30;;;;;;5028176;28;20122;-70
2023/09/08 11:30:12;;;;;;;8.90;4.68;;;31.70;51.00;;;;;;5021962;28;20040;-72
2023/09/08 11:32:38;;;;;;;8.75;4.80;;;31.70;51.00;;;;;;5024819;28;20029;-73
2023/09/08 11:35:09;;;;;;;8.13;4.70;;;31.60;50.70;;;;;;5026320;28;20025;-72
2023/09/08 11:37:42;;;;;;;8.55;5.00;;;31.60;50.90;;;;;;5057202;28;20104;-72
2023/09/08 11:40:11;;;;;;;7.20;4.78;;;31.60;51.10;;;;;;5026513;28;20450;-72
2023/09/08 11:42:43;;;;;;;7.18;4.70;;;31.60;51.00;;;;;;5034917;28;20025;-72
2023/09/08 11:45:14;;;;;;;9.63;6.10;;;31.60;50.80;;;;;;5033015;28;20117;-72
2023/09/08 11:47:41;;;;;;;;;;;31.60;51.20;;;;;;5030427;28;20029;-72
2023/09/08 11:50:08;;;;;;;20.00;6.13;;;31.60;51.40;;;;;;5050543;28;19971;-72
2023/09/08 11:52:34;;;;;;;9.52;5.10;;;31.60;51.50;;;;;;5033897;28;20100;-72
2023/09/08 11:55:00;;;;;;;7.82;4.93;;;31.60;51.60;;;;;;5034727;28;20523;-72
2023/09/08 11:57:26;;;;;;;8.23;4.72;;;31.60;51.60;;;;;;5033919;28;20101;-72
2023/09/08 11:59:51;;;;;;;9.05;4.53;;;31.60;51.40;;;;;;5023268;28;20173;-72
2023/09/08 12:02:17;;;;;;;8.68;4.93;;;31.60;51.10;;;;;;5033617;28;20037;-73
2023/09/08 12:04:45;;;;;;;8.50;5.25;;;31.60;51.40;;;;;;5034508;28;20056;-73
2023/09/08 12:07:18;;;;;;;8.95;5.35;;;31.50;51.30;;;;;;5033795;28;20041;-72
2023/09/08 12:09:45;;;;;;;8.65;5.20;;;31.50;51.40;;;;;;5032640;28;20122;-72
2023/09/08 12:12:14;;;;;;;10.70;5.30;;;31.40;51.40;;;;;;5034767;28;20025;-72
2023/09/08 12:14:43;;;;;;;8.05;4.70;;;31.40;51.60;;;;;;5033339;28;20144;-72
2023/09/08 12:17:09;;;;;;;8.63;4.88;;;31.30;52.00;;;;;;5066717;28;20350;-72
2023/09/08 12:19:38;;;;;;;9.48;5.43;;;31.30;52.00;;;;;;5026322;28;20030;-72
2023/09/08 12:22:07;;;;;;;8.00;4.80;;;31.20;51.90;;;;;;5034369;28;20061;-72
2023/09/08 12:24:59;;;;;;;7.47;4.90;;;31.20;52.40;;;;;;5034689;28;20033;-72
2023/09/08 12:27:26;;;;;;;9.32;5.13;;;31.10;52.50;;;;;;5023923;28;20037;-72
2023/09/08 12:30:04;;;;;;;8.25;5.70;;;31.10;52.60;;;;;;5032468;28;20454;-72
2023/09/08 12:32:31;;;;;;;8.88;5.75;;;31.00;52.80;;;;;;5020953;28;20086;-72
2023/09/08 12:34:58;;;;;;;8.20;5.50;;;31.00;53.00;;;;;;5037314;28;20037;-72
2023/09/08 12:37:29;;;;;;;9.70;5.82;;;31.00;53.10;;;;;;5038148;28;20045;-73
2023/09/08 12:39:55;;;;;;;;;;;30.90;53.10;;;;;;5032502;28;20025;-72